sensor_id;sensor_type;location;lat;lon;timestamp;temperature;humidity
77496;SHT31;66600;48.378;9.948;2023-02-12T00:02:06;2.73;83.42
77496;SHT31;66600;48.378;9.948;2023-02-12T00:04:32;2.71;83.93
77496;SHT31;66600;48.378;9.948;2023-02-12T00:06:57;2.65;83.93
77496;SHT31;66600;48.378;9.948;2023-02-12T00:09:22;2.59;83.73
77496;SHT31;66600;48.378;9.948;2023-02-12T00:11:48;2.57;84.06
77496;SHT31;66600;48.378;9.948;2023-02-12T00:14:13;2.60;84.53
77496;SHT31;66600;48.378;9.948;2023-02-12T00:16:38;2.60;84.36
77496;SHT31;66600;48.378;9.948;2023-02-12T00:19:04;2.59;83.99
77496;SHT31;66600;48.378;9.948;2023-02-12T00:21:29;2.67;82.94
77496;SHT31;66600;48.378;9.948;2023-02-12T00:23:54;2.59;82.87
77496;SHT31;66600;48.378;9.948;2023-02-12T00:26:21;2.52;82.53
77496;SHT31;66600;48.378;9.948;2023-02-12T00:28:47;2.39;82.42
77496;SHT31;66600;48.378;9.948;2023-02-12T00:31:15;2.18;83.16
77496;SHT31;66600;48.378;9.948;2023-02-12T00:33:41;2.13;83.72
77496;SHT31;66600;48.378;9.948;2023-02-12T00:36:07;2.14;83.97
77496;SHT31;66600;48.378;9.948;2023-02-12T00:38:34;2.27;83.52
77496;SHT31;66600;48.378;9.948;2023-02-12T00:40:59;2.29;83.65
77496;SHT31;66600;48.378;9.948;2023-02-12T00:43:24;2.28;83.65
77496;SHT31;66600;48.378;9.948;2023-02-12T00:45:50;2.29;83.93
77496;SHT31;66600;48.378;9.948;2023-02-12T00:48:15;2.34;84.46
77496;SHT31;66600;48.378;9.948;2023-02-12T00:50:44;2.49;86.22
77496;SHT31;66600;48.378;9.948;2023-02-12T00:53:09;2.60;86.26
77496;SHT31;66600;48.378;9.948;2023-02-12T00:55:35;2.65;85.97
77496;SHT31;66600;48.378;9.948;2023-02-12T00:58:00;2.69;86.14
77496;SHT31;66600;48.378;9.948;2023-02-12T01:00:25;2.73;86.19
77496;SHT31;66600;48.378;9.948;2023-02-12T01:02:51;2.80;86.22
77496;SHT31;66600;48.378;9.948;2023-02-12T01:05:16;2.80;86.37
77496;SHT31;66600;48.378;9.948;2023-02-12T01:07:43;2.86;86.27
77496;SHT31;66600;48.378;9.948;2023-02-12T01:10:09;2.94;85.85
77496;SHT31;66600;48.378;9.948;2023-02-12T01:12:34;2.99;85.69
77496;SHT31;66600;48.378;9.948;2023-02-12T01:15:00;2.99;85.69
77496;SHT31;66600;48.378;9.948;2023-02-12T01:17:25;2.90;85.84
77496;SHT31;66600;48.378;9.948;2023-02-12T01:19:55;2.89;85.71
77496;SHT31;66600;48.378;9.948;2023-02-12T01:22:21;2.90;86.14
77496;SHT31;66600;48.378;9.948;2023-02-12T01:24:46;2.84;86.34
77496;SHT31;66600;48.378;9.948;2023-02-12T01:27:11;2.83;86.32
77496;SHT31;66600;48.378;9.948;2023-02-12T01:29:36;2.83;86.47
77496;SHT31;66600;48.378;9.948;2023-02-12T01:32:04;2.80;86.42
77496;SHT31;66600;48.378;9.948;2023-02-12T01:34:29;2.76;86.60
77496;SHT31;66600;48.378;9.948;2023-02-12T01:36:54;2.79;86.68
77496;SHT31;66600;48.378;9.948;2023-02-12T01:39:20;2.77;86.46
77496;SHT31;66600;48.378;9.948;2023-02-12T01:41:45;2.79;86.76
77496;SHT31;66600;48.378;9.948;2023-02-12T01:44:21;2.71;86.66
77496;SHT31;66600;48.378;9.948;2023-02-12T01:47:02;2.69;85.28
77496;SHT31;66600;48.378;9.948;2023-02-12T01:52:10;2.65;84.11
77496;SHT31;66600;48.378;9.948;2023-02-12T01:54:38;2.59;83.65
77496;SHT31;66600;48.378;9.948;2023-02-12T01:57:07;2.50;84.11
77496;SHT31;66600;48.378;9.948;2023-02-12T01:59:34;2.44;84.14
77496;SHT31;66600;48.378;9.948;2023-02-12T02:02:01;2.39;84.22
77496;SHT31;66600;48.378;9.948;2023-02-12T02:04:29;2.31;84.53
77496;SHT31;66600;48.378;9.948;2023-02-12T02:06:59;2.25;84.35
77496;SHT31;66600;48.378;9.948;2023-02-12T02:09:27;2.15;84.89
77496;SHT31;66600;48.378;9.948;2023-02-12T02:11:53;2.11;85.07
77496;SHT31;66600;48.378;9.948;2023-02-12T02:14:37;2.17;85.16
77496;SHT31;66600;48.378;9.948;2023-02-12T02:25:39;2.24;86.68
77496;SHT31;66600;48.378;9.948;2023-02-12T02:41:42;2.15;86.78
77496;SHT31;66600;48.378;9.948;2023-02-12T02:44:25;2.15;86.90
77496;SHT31;66600;48.378;9.948;2023-02-12T02:46:52;2.18;87.11
77496;SHT31;66600;48.378;9.948;2023-02-12T02:49:23;2.18;87.58
77496;SHT31;66600;48.378;9.948;2023-02-12T02:51:53;2.24;87.64
77496;SHT31;66600;48.378;9.948;2023-02-12T02:54:32;2.27;88.46
77496;SHT31;66600;48.378;9.948;2023-02-12T02:57:12;2.29;88.92
77496;SHT31;66600;48.378;9.948;2023-02-12T02:59:42;2.38;89.01
77496;SHT31;66600;48.378;9.948;2023-02-12T03:02:17;2.46;88.65
77496;SHT31;66600;48.378;9.948;2023-02-12T03:04:54;2.56;88.19
77496;SHT31;66600;48.378;9.948;2023-02-12T03:07:32;2.53;88.12
77496;SHT31;66600;48.378;9.948;2023-02-12T03:10:06;2.50;88.10
77496;SHT31;66600;48.378;9.948;2023-02-12T03:12:40;2.52;88.18
77496;SHT31;66600;48.378;9.948;2023-02-12T03:15:20;2.49;88.29
77496;SHT31;66600;48.378;9.948;2023-02-12T03:17:49;2.44;88.76
77496;SHT31;66600;48.378;9.948;2023-02-12T03:22:47;2.46;89.02
77496;SHT31;66600;48.378;9.948;2023-02-12T03:25:41;2.42;88.54
77496;SHT31;66600;48.378;9.948;2023-02-12T03:28:26;2.41;88.05
77496;SHT31;66600;48.378;9.948;2023-02-12T03:36:37;2.32;87.96
77496;SHT31;66600;48.378;9.948;2023-02-12T03:39:19;2.28;88.25
77496;SHT31;66600;48.378;9.948;2023-02-12T03:42:01;2.29;88.50
77496;SHT31;66600;48.378;9.948;2023-02-12T03:50:02;2.20;87.44
77496;SHT31;66600;48.378;9.948;2023-02-12T03:52:31;2.18;86.86
77496;SHT31;66600;48.378;9.948;2023-02-12T03:54:57;2.38;86.04
77496;SHT31;66600;48.378;9.948;2023-02-12T03:57:26;2.35;85.92
77496;SHT31;66600;48.378;9.948;2023-02-12T03:59:55;2.29;85.87
77496;SHT31;66600;48.378;9.948;2023-02-12T04:02:21;2.22;86.02
77496;SHT31;66600;48.378;9.948;2023-02-12T04:04:46;2.20;86.18
77496;SHT31;66600;48.378;9.948;2023-02-12T04:07:12;2.08;87.06
77496;SHT31;66600;48.378;9.948;2023-02-12T04:09:38;2.04;87.38
77496;SHT31;66600;48.378;9.948;2023-02-12T04:12:29;2.07;87.86
77496;SHT31;66600;48.378;9.948;2023-02-12T04:18:00;2.04;88.53
77496;SHT31;66600;48.378;9.948;2023-02-12T04:20:42;2.08;89.25
77496;SHT31;66600;48.378;9.948;2023-02-12T04:23:31;2.13;88.91
77496;SHT31;66600;48.378;9.948;2023-02-12T04:32:11;2.17;88.25
77496;SHT31;66600;48.378;9.948;2023-02-12T04:34:58;2.14;88.28
77496;SHT31;66600;48.378;9.948;2023-02-12T04:39:55;2.14;88.40
77496;SHT31;66600;48.378;9.948;2023-02-12T04:42:20;2.24;88.49
77496;SHT31;66600;48.378;9.948;2023-02-12T04:44:46;2.25;88.12
77496;SHT31;66600;48.378;9.948;2023-02-12T04:47:15;2.20;87.92
77496;SHT31;66600;48.378;9.948;2023-02-12T04:49:41;2.18;88.25
77496;SHT31;66600;48.378;9.948;2023-02-12T04:52:07;2.18;88.84
77496;SHT31;66600;48.378;9.948;2023-02-12T04:54:32;2.18;89.31
77496;SHT31;66600;48.378;9.948;2023-02-12T04:56:57;2.25;90.06
77496;SHT31;66600;48.378;9.948;2023-02-12T04:59:23;2.31;90.42
77496;SHT31;66600;48.378;9.948;2023-02-12T05:01:48;2.35;90.51
77496;SHT31;66600;48.378;9.948;2023-02-12T05:04:15;2.37;90.56
77496;SHT31;66600;48.378;9.948;2023-02-12T05:06:42;2.41;90.48
77496;SHT31;66600;48.378;9.948;2023-02-12T05:09:13;2.42;90.38
77496;SHT31;66600;48.378;9.948;2023-02-12T05:11:39;2.42;90.06
77496;SHT31;66600;48.378;9.948;2023-02-12T05:14:04;2.41;89.64
77496;SHT31;66600;48.378;9.948;2023-02-12T05:16:30;2.42;89.61
77496;SHT31;66600;48.378;9.948;2023-02-12T05:18:55;2.41;89.34
77496;SHT31;66600;48.378;9.948;2023-02-12T05:21:21;2.38;89.29
77496;SHT31;66600;48.378;9.948;2023-02-12T05:23:46;2.37;88.55
77496;SHT31;66600;48.378;9.948;2023-02-12T05:26:17;2.28;87.75
77496;SHT31;66600;48.378;9.948;2023-02-12T05:28:43;2.18;86.99
77496;SHT31;66600;48.378;9.948;2023-02-12T05:31:10;2.18;87.35
77496;SHT31;66600;48.378;9.948;2023-02-12T05:33:37;2.11;87.24
77496;SHT31;66600;48.378;9.948;2023-02-12T05:36:04;2.06;87.10
77496;SHT31;66600;48.378;9.948;2023-02-12T05:38:30;2.03;87.14
77496;SHT31;66600;48.378;9.948;2023-02-12T05:41:03;2.03;87.15
77496;SHT31;66600;48.378;9.948;2023-02-12T05:43:29;2.04;87.53
77496;SHT31;66600;48.378;9.948;2023-02-12T05:45:58;2.04;87.46
77496;SHT31;66600;48.378;9.948;2023-02-12T05:48:23;2.06;87.71
77496;SHT31;66600;48.378;9.948;2023-02-12T05:50:48;2.01;88.47
77496;SHT31;66600;48.378;9.948;2023-02-12T05:53:14;2.10;89.09
77496;SHT31;66600;48.378;9.948;2023-02-12T05:55:39;2.13;89.52
77496;SHT31;66600;48.378;9.948;2023-02-12T05:58:04;2.14;89.36
77496;SHT31;66600;48.378;9.948;2023-02-12T06:00:29;2.18;89.47
77496;SHT31;66600;48.378;9.948;2023-02-12T06:02:55;2.25;89.60
77496;SHT31;66600;48.378;9.948;2023-02-12T06:05:20;2.27;89.52
77496;SHT31;66600;48.378;9.948;2023-02-12T06:07:45;2.29;89.51
77496;SHT31;66600;48.378;9.948;2023-02-12T06:10:10;2.28;89.33
77496;SHT31;66600;48.378;9.948;2023-02-12T06:12:36;2.29;89.37
77496;SHT31;66600;48.378;9.948;2023-02-12T06:15:01;2.29;89.28
77496;SHT31;66600;48.378;9.948;2023-02-12T06:17:26;2.31;89.27
77496;SHT31;66600;48.378;9.948;2023-02-12T06:19:52;2.37;89.28
77496;SHT31;66600;48.378;9.948;2023-02-12T06:22:17;2.29;89.65
77496;SHT31;66600;48.378;9.948;2023-02-12T06:24:42;2.34;89.65
77496;SHT31;66600;48.378;9.948;2023-02-12T06:27:07;2.28;89.79
77496;SHT31;66600;48.378;9.948;2023-02-12T06:29:33;2.28;90.12
77496;SHT31;66600;48.378;9.948;2023-02-12T06:31:58;2.29;90.25
77496;SHT31;66600;48.378;9.948;2023-02-12T06:34:23;2.28;90.27
77496;SHT31;66600;48.378;9.948;2023-02-12T06:36:49;2.34;90.29
77496;SHT31;66600;48.378;9.948;2023-02-12T06:39:15;2.38;90.27
77496;SHT31;66600;48.378;9.948;2023-02-12T06:41:41;2.38;90.11
77496;SHT31;66600;48.378;9.948;2023-02-12T06:44:07;2.35;90.12
77496;SHT31;66600;48.378;9.948;2023-02-12T06:46:32;2.35;89.99
77496;SHT31;66600;48.378;9.948;2023-02-12T06:48:59;2.41;89.95
77496;SHT31;66600;48.378;9.948;2023-02-12T06:51:25;2.46;90.33
77496;SHT31;66600;48.378;9.948;2023-02-12T06:53:52;2.49;90.33
77496;SHT31;66600;48.378;9.948;2023-02-12T06:56:19;2.53;90.20
77496;SHT31;66600;48.378;9.948;2023-02-12T06:58:50;2.50;90.34
77496;SHT31;66600;48.378;9.948;2023-02-12T07:01:18;2.53;90.22
77496;SHT31;66600;48.378;9.948;2023-02-12T07:03:50;2.48;90.00
77496;SHT31;66600;48.378;9.948;2023-02-12T07:06:16;2.46;90.11
77496;SHT31;66600;48.378;9.948;2023-02-12T07:08:41;2.52;90.31
77496;SHT31;66600;48.378;9.948;2023-02-12T07:11:07;2.53;90.76
77496;SHT31;66600;48.378;9.948;2023-02-12T07:13:32;2.56;91.25
77496;SHT31;66600;48.378;9.948;2023-02-12T07:16:02;2.59;91.63
77496;SHT31;66600;48.378;9.948;2023-02-12T07:18:28;2.57;91.51
77496;SHT31;66600;48.378;9.948;2023-02-12T07:20:55;2.60;91.35
77496;SHT31;66600;48.378;9.948;2023-02-12T07:23:20;2.71;90.99
77496;SHT31;66600;48.378;9.948;2023-02-12T07:26:07;2.73;90.85
77496;SHT31;66600;48.378;9.948;2023-02-12T07:28:33;2.67;91.09
77496;SHT31;66600;48.378;9.948;2023-02-12T07:31:09;2.71;91.07
77496;SHT31;66600;48.378;9.948;2023-02-12T07:33:35;2.66;91.66
77496;SHT31;66600;48.378;9.948;2023-02-12T07:36:02;2.66;92.15
77496;SHT31;66600;48.378;9.948;2023-02-12T07:38:28;2.73;92.25
77496;SHT31;66600;48.378;9.948;2023-02-12T07:40:53;2.76;92.09
77496;SHT31;66600;48.378;9.948;2023-02-12T07:43:18;2.72;92.39
77496;SHT31;66600;48.378;9.948;2023-02-12T07:45:44;2.69;92.30
77496;SHT31;66600;48.378;9.948;2023-02-12T07:48:09;2.76;92.32
77496;SHT31;66600;48.378;9.948;2023-02-12T07:50:34;2.80;91.99
77496;SHT31;66600;48.378;9.948;2023-02-12T07:52:59;2.84;92.20
77496;SHT31;66600;48.378;9.948;2023-02-12T07:55:25;2.93;91.94
77496;SHT31;66600;48.378;9.948;2023-02-12T07:57:50;2.90;92.00
77496;SHT31;66600;48.378;9.948;2023-02-12T08:00:16;2.90;92.59
77496;SHT31;66600;48.378;9.948;2023-02-12T08:02:41;2.87;92.66
77496;SHT31;66600;48.378;9.948;2023-02-12T08:05:06;2.99;92.43
77496;SHT31;66600;48.378;9.948;2023-02-12T08:07:32;3.07;92.18
77496;SHT31;66600;48.378;9.948;2023-02-12T08:09:57;3.21;91.72
77496;SHT31;66600;48.378;9.948;2023-02-12T08:12:23;3.27;91.00
77496;SHT31;66600;48.378;9.948;2023-02-12T08:14:48;3.15;91.51
77496;SHT31;66600;48.378;9.948;2023-02-12T08:17:13;3.39;91.10
77496;SHT31;66600;48.378;9.948;2023-02-12T08:19:39;3.56;90.60
77496;SHT31;66600;48.378;9.948;2023-02-12T08:22:04;3.70;90.13
77496;SHT31;66600;48.378;9.948;2023-02-12T08:24:31;3.86;89.47
77496;SHT31;66600;48.378;9.948;2023-02-12T08:26:56;3.93;89.28
77496;SHT31;66600;48.378;9.948;2023-02-12T08:29:27;3.86;89.35
77496;SHT31;66600;48.378;9.948;2023-02-12T08:31:55;3.75;89.80
77496;SHT31;66600;48.378;9.948;2023-02-12T08:34:26;3.70;90.42
77496;SHT31;66600;48.378;9.948;2023-02-12T08:36:53;3.68;90.51
77496;SHT31;66600;48.378;9.948;2023-02-12T08:39:19;3.62;90.85
77496;SHT31;66600;48.378;9.948;2023-02-12T08:41:45;3.58;91.49
77496;SHT31;66600;48.378;9.948;2023-02-12T08:44:11;3.70;90.83
77496;SHT31;66600;48.378;9.948;2023-02-12T08:46:39;3.73;90.88
77496;SHT31;66600;48.378;9.948;2023-02-12T08:49:11;3.89;90.40
77496;SHT31;66600;48.378;9.948;2023-02-12T08:51:39;4.01;89.71
77496;SHT31;66600;48.378;9.948;2023-02-12T08:54:06;3.75;90.35
77496;SHT31;66600;48.378;9.948;2023-02-12T08:56:33;3.93;89.87
77496;SHT31;66600;48.378;9.948;2023-02-12T08:59:00;3.87;89.84
77496;SHT31;66600;48.378;9.948;2023-02-12T09:01:29;3.97;89.95
77496;SHT31;66600;48.378;9.948;2023-02-12T09:03:55;4.25;89.01
77496;SHT31;66600;48.378;9.948;2023-02-12T09:06:21;4.51;88.05
77496;SHT31;66600;48.378;9.948;2023-02-12T09:08:48;4.73;87.21
77496;SHT31;66600;48.378;9.948;2023-02-12T09:11:16;4.93;85.99
77496;SHT31;66600;48.378;9.948;2023-02-12T09:13:42;4.82;86.26
77496;SHT31;66600;48.378;9.948;2023-02-12T09:16:08;4.87;86.47
77496;SHT31;66600;48.378;9.948;2023-02-12T09:18:34;5.17;85.80
77496;SHT31;66600;48.378;9.948;2023-02-12T09:21:06;5.48;84.68
77496;SHT31;66600;48.378;9.948;2023-02-12T09:23:31;5.56;83.45
77496;SHT31;66600;48.378;9.948;2023-02-12T09:25:57;5.44;83.54
77496;SHT31;66600;48.378;9.948;2023-02-12T09:28:23;5.32;83.89
77496;SHT31;66600;48.378;9.948;2023-02-12T09:30:48;5.24;84.08
77496;SHT31;66600;48.378;9.948;2023-02-12T09:33:14;5.34;83.70
77496;SHT31;66600;48.378;9.948;2023-02-12T09:35:40;5.44;83.87
77496;SHT31;66600;48.378;9.948;2023-02-12T09:38:06;5.42;83.40
77496;SHT31;66600;48.378;9.948;2023-02-12T09:46:21;5.85;81.53
77496;SHT31;66600;48.378;9.948;2023-02-12T09:51:20;5.62;82.54
77496;SHT31;66600;48.378;9.948;2023-02-12T09:53:47;5.58;82.21
77496;SHT31;66600;48.378;9.948;2023-02-12T09:56:18;5.42;83.26
77496;SHT31;66600;48.378;9.948;2023-02-12T09:58:48;5.65;82.98
77496;SHT31;66600;48.378;9.948;2023-02-12T10:01:18;5.49;83.24
77496;SHT31;66600;48.378;9.948;2023-02-12T10:03:44;5.76;82.42
77496;SHT31;66600;48.378;9.948;2023-02-12T10:06:18;5.75;81.85
77496;SHT31;66600;48.378;9.948;2023-02-12T10:11:58;5.60;82.45
77496;SHT31;66600;48.378;9.948;2023-02-12T10:17:17;5.90;81.25
77496;SHT31;66600;48.378;9.948;2023-02-12T10:20:00;5.83;81.56
77496;SHT31;66600;48.378;9.948;2023-02-12T10:22:47;6.05;81.46
77496;SHT31;66600;48.378;9.948;2023-02-12T10:25:34;6.28;80.48
77496;SHT31;66600;48.378;9.948;2023-02-12T10:28:07;6.38;80.29
77496;SHT31;66600;48.378;9.948;2023-02-12T10:33:12;5.72;82.15
77496;SHT31;66600;48.378;9.948;2023-02-12T10:36:06;5.83;81.73
77496;SHT31;66600;48.378;9.948;2023-02-12T10:38:33;5.93;81.31
77496;SHT31;66600;48.378;9.948;2023-02-12T10:40:59;5.35;82.86
77496;SHT31;66600;48.378;9.948;2023-02-12T10:43:27;5.65;83.06
77496;SHT31;66600;48.378;9.948;2023-02-12T10:45:53;5.54;82.80
77496;SHT31;66600;48.378;9.948;2023-02-12T10:48:34;5.87;82.16
77496;SHT31;66600;48.378;9.948;2023-02-12T10:52:01;5.87;81.77
77496;SHT31;66600;48.378;9.948;2023-02-12T10:54:33;5.78;81.62
77496;SHT31;66600;48.378;9.948;2023-02-12T10:57:07;5.45;83.14
77496;SHT31;66600;48.378;9.948;2023-02-12T10:59:32;5.48;83.78
77496;SHT31;66600;48.378;9.948;2023-02-12T11:01:58;5.59;82.81
77496;SHT31;66600;48.378;9.948;2023-02-12T11:04:26;5.23;83.49
77496;SHT31;66600;48.378;9.948;2023-02-12T11:07:05;5.28;83.23
77496;SHT31;66600;48.378;9.948;2023-02-12T11:09:43;5.41;83.13
77496;SHT31;66600;48.378;9.948;2023-02-12T11:14:59;5.40;83.41
77496;SHT31;66600;48.378;9.948;2023-02-12T11:17:37;5.17;83.50
77496;SHT31;66600;48.378;9.948;2023-02-12T11:22:57;5.00;84.14
77496;SHT31;66600;48.378;9.948;2023-02-12T11:25:25;5.13;85.10
77496;SHT31;66600;48.378;9.948;2023-02-12T11:30:24;5.51;83.05
77496;SHT31;66600;48.378;9.948;2023-02-12T11:32:50;5.52;82.92
77496;SHT31;66600;48.378;9.948;2023-02-12T11:35:17;5.30;83.89
77496;SHT31;66600;48.378;9.948;2023-02-12T11:37:49;5.20;84.58
77496;SHT31;66600;48.378;9.948;2023-02-12T11:40:25;5.41;84.10
77496;SHT31;66600;48.378;9.948;2023-02-12T11:42:57;5.51;83.74
77496;SHT31;66600;48.378;9.948;2023-02-12T11:45:42;5.30;84.01
77496;SHT31;66600;48.378;9.948;2023-02-12T11:48:17;5.13;85.03
77496;SHT31;66600;48.378;9.948;2023-02-12T11:50:48;5.23;84.95
77496;SHT31;66600;48.378;9.948;2023-02-12T11:53:34;5.26;84.92
77496;SHT31;66600;48.378;9.948;2023-02-12T11:56:03;5.03;85.32
77496;SHT31;66600;48.378;9.948;2023-02-12T11:58:30;4.97;86.03
77496;SHT31;66600;48.378;9.948;2023-02-12T12:01:21;4.97;86.60
77496;SHT31;66600;48.378;9.948;2023-02-12T12:04:02;5.13;85.76
77496;SHT31;66600;48.378;9.948;2023-02-12T12:09:09;5.32;85.12
77496;SHT31;66600;48.378;9.948;2023-02-12T12:14:16;5.24;85.44
77496;SHT31;66600;48.378;9.948;2023-02-12T12:17:02;5.04;86.18
77496;SHT31;66600;48.378;9.948;2023-02-12T12:22:41;4.86;86.71
77496;SHT31;66600;48.378;9.948;2023-02-12T12:25:14;4.82;86.60
77496;SHT31;66600;48.378;9.948;2023-02-12T12:27:51;4.86;86.72
77496;SHT31;66600;48.378;9.948;2023-02-12T12:30:37;4.93;86.67
77496;SHT31;66600;48.378;9.948;2023-02-12T12:33:13;5.07;86.02
77496;SHT31;66600;48.378;9.948;2023-02-12T12:35:46;4.69;86.57
77496;SHT31;66600;48.378;9.948;2023-02-12T12:38:37;4.82;86.32
77496;SHT31;66600;48.378;9.948;2023-02-12T12:44:34;5.00;85.92
77496;SHT31;66600;48.378;9.948;2023-02-12T13:01:20;4.82;86.60
77496;SHT31;66600;48.378;9.948;2023-02-12T13:04:05;4.73;86.81
77496;SHT31;66600;48.378;9.948;2023-02-12T13:09:28;4.76;86.59
77496;SHT31;66600;48.378;9.948;2023-02-12T13:14:57;5.07;85.88
77496;SHT31;66600;48.378;9.948;2023-02-12T13:17:37;5.11;85.94
77496;SHT31;66600;48.378;9.948;2023-02-12T13:22:59;4.86;85.92
77496;SHT31;66600;48.378;9.948;2023-02-12T13:25:34;4.94;86.33
77496;SHT31;66600;48.378;9.948;2023-02-12T13:28:04;5.09;86.08
77496;SHT31;66600;48.378;9.948;2023-02-12T13:30:36;5.03;85.54
77496;SHT31;66600;48.378;9.948;2023-02-12T13:33:15;5.03;85.95
77496;SHT31;66600;48.378;9.948;2023-02-12T13:35:45;5.14;85.25
77496;SHT31;66600;48.378;9.948;2023-02-12T13:38:18;5.13;85.47
77496;SHT31;66600;48.378;9.948;2023-02-12T13:40:44;5.30;85.16
77496;SHT31;66600;48.378;9.948;2023-02-12T13:43:28;5.20;85.27
77496;SHT31;66600;48.378;9.948;2023-02-12T13:46:18;5.17;85.42
77496;SHT31;66600;48.378;9.948;2023-02-12T13:51:27;5.20;85.67
77496;SHT31;66600;48.378;9.948;2023-02-12T13:54:08;4.87;86.42
77496;SHT31;66600;48.378;9.948;2023-02-12T13:56:41;5.03;86.11
77496;SHT31;66600;48.378;9.948;2023-02-12T14:01:54;5.20;85.81
77496;SHT31;66600;48.378;9.948;2023-02-12T14:07:04;5.28;84.95
77496;SHT31;66600;48.378;9.948;2023-02-12T14:09:42;5.27;85.34
77496;SHT31;66600;48.378;9.948;2023-02-12T14:14:54;5.31;85.19
77496;SHT31;66600;48.378;9.948;2023-02-12T14:25:25;5.07;85.62
77496;SHT31;66600;48.378;9.948;2023-02-12T14:27:56;4.89;86.12
77496;SHT31;66600;48.378;9.948;2023-02-12T14:30:31;5.01;85.88
77496;SHT31;66600;48.378;9.948;2023-02-12T14:37:59;5.09;85.78
77496;SHT31;66600;48.378;9.948;2023-02-12T14:40:36;5.26;85.39
77496;SHT31;66600;48.378;9.948;2023-02-12T14:45:57;5.54;84.09
77496;SHT31;66600;48.378;9.948;2023-02-12T14:51:15;5.19;84.82
77496;SHT31;66600;48.378;9.948;2023-02-12T14:53:43;5.24;85.21
77496;SHT31;66600;48.378;9.948;2023-02-12T14:56:10;5.28;84.90
77496;SHT31;66600;48.378;9.948;2023-02-12T14:58:36;5.45;84.65
77496;SHT31;66600;48.378;9.948;2023-02-12T15:01:03;5.49;84.21
77496;SHT31;66600;48.378;9.948;2023-02-12T15:03:43;5.49;84.60
77496;SHT31;66600;48.378;9.948;2023-02-12T15:06:20;5.49;84.34
77496;SHT31;66600;48.378;9.948;2023-02-12T15:08:52;5.37;84.68
77496;SHT31;66600;48.378;9.948;2023-02-12T15:11:33;5.30;85.24
77496;SHT31;66600;48.378;9.948;2023-02-12T15:14:12;5.32;85.02
77496;SHT31;66600;48.378;9.948;2023-02-12T15:17:01;5.24;85.54
77496;SHT31;66600;48.378;9.948;2023-02-12T15:21:56;5.35;85.25
77496;SHT31;66600;48.378;9.948;2023-02-12T15:24:24;5.21;85.56
77496;SHT31;66600;48.378;9.948;2023-02-12T15:26:55;5.10;86.00
77496;SHT31;66600;48.378;9.948;2023-02-12T15:29:29;5.07;86.28
77496;SHT31;66600;48.378;9.948;2023-02-12T15:31:58;5.17;85.84
77496;SHT31;66600;48.378;9.948;2023-02-12T15:34:27;5.20;85.78
77496;SHT31;66600;48.378;9.948;2023-02-12T15:36:59;5.23;85.84
77496;SHT31;66600;48.378;9.948;2023-02-12T15:39:26;5.13;86.13
77496;SHT31;66600;48.378;9.948;2023-02-12T15:41:52;5.13;86.36
77496;SHT31;66600;48.378;9.948;2023-02-12T15:49:26;5.04;86.61
77496;SHT31;66600;48.378;9.948;2023-02-12T15:51:51;5.07;86.73
77496;SHT31;66600;48.378;9.948;2023-02-12T15:54:18;5.00;86.68
77496;SHT31;66600;48.378;9.948;2023-02-12T15:56:44;4.96;87.04
77496;SHT31;66600;48.378;9.948;2023-02-12T15:59:19;4.87;87.40
77496;SHT31;66600;48.378;9.948;2023-02-12T16:01:53;4.82;87.55
77496;SHT31;66600;48.378;9.948;2023-02-12T16:04:18;4.80;87.81
77496;SHT31;66600;48.378;9.948;2023-02-12T16:06:44;4.79;87.91
77496;SHT31;66600;48.378;9.948;2023-02-12T16:09:19;4.71;88.20
77496;SHT31;66600;48.378;9.948;2023-02-12T16:11:50;4.61;88.53
77496;SHT31;66600;48.378;9.948;2023-02-12T16:14:25;4.55;88.79
77496;SHT31;66600;48.378;9.948;2023-02-12T16:16:52;4.49;89.21
77496;SHT31;66600;48.378;9.948;2023-02-12T16:19:24;4.44;89.50
77496;SHT31;66600;48.378;9.948;2023-02-12T16:22:14;4.34;89.82
77496;SHT31;66600;48.378;9.948;2023-02-12T16:24:51;4.27;90.04
77496;SHT31;66600;48.378;9.948;2023-02-12T16:27:20;4.21;90.36
77496;SHT31;66600;48.378;9.948;2023-02-12T16:29:48;4.11;90.70
77496;SHT31;66600;48.378;9.948;2023-02-12T16:32:36;4.06;91.00
77496;SHT31;66600;48.378;9.948;2023-02-12T16:42:36;3.86;91.82
77496;SHT31;66600;48.378;9.948;2023-02-12T16:47:58;3.73;92.45
77496;SHT31;66600;48.378;9.948;2023-02-12T16:50:25;3.66;92.64
77496;SHT31;66600;48.378;9.948;2023-02-12T16:52:59;3.59;92.96
77496;SHT31;66600;48.378;9.948;2023-02-12T16:55:25;3.54;93.08
77496;SHT31;66600;48.378;9.948;2023-02-12T16:57:50;3.51;93.23
77496;SHT31;66600;48.378;9.948;2023-02-12T17:00:16;3.48;93.09
77496;SHT31;66600;48.378;9.948;2023-02-12T17:02:42;3.39;93.25
77496;SHT31;66600;48.378;9.948;2023-02-12T17:05:08;3.38;93.48
77496;SHT31;66600;48.378;9.948;2023-02-12T17:07:34;3.35;93.37
77496;SHT31;66600;48.378;9.948;2023-02-12T17:10:00;3.30;93.45
77496;SHT31;66600;48.378;9.948;2023-02-12T17:12:26;3.22;93.60
77496;SHT31;66600;48.378;9.948;2023-02-12T17:14:51;3.25;93.67
77496;SHT31;66600;48.378;9.948;2023-02-12T17:17:17;3.18;93.73
77496;SHT31;66600;48.378;9.948;2023-02-12T17:19:42;3.15;93.78
77496;SHT31;66600;48.378;9.948;2023-02-12T17:22:17;3.11;94.04
77496;SHT31;66600;48.378;9.948;2023-02-12T17:24:44;3.14;94.04
77496;SHT31;66600;48.378;9.948;2023-02-12T17:27:15;3.14;93.77
77496;SHT31;66600;48.378;9.948;2023-02-12T17:29:40;3.10;93.67
77496;SHT31;66600;48.378;9.948;2023-02-12T17:32:05;3.05;93.92
77496;SHT31;66600;48.378;9.948;2023-02-12T17:34:33;2.97;94.06
77496;SHT31;66600;48.378;9.948;2023-02-12T17:37:02;2.93;94.13
77496;SHT31;66600;48.378;9.948;2023-02-12T17:39:27;2.93;94.32
77496;SHT31;66600;48.378;9.948;2023-02-12T17:41:53;2.93;94.44
77496;SHT31;66600;48.378;9.948;2023-02-12T17:44:18;2.89;94.43
77496;SHT31;66600;48.378;9.948;2023-02-12T17:46:43;2.83;94.43
77496;SHT31;66600;48.378;9.948;2023-02-12T17:49:09;2.86;94.53
77496;SHT31;66600;48.378;9.948;2023-02-12T17:51:34;2.94;94.41
77496;SHT31;66600;48.378;9.948;2023-02-12T17:54:00;2.86;94.32
77496;SHT31;66600;48.378;9.948;2023-02-12T17:56:25;2.87;94.24
77496;SHT31;66600;48.378;9.948;2023-02-12T17:58:50;2.90;94.20
77496;SHT31;66600;48.378;9.948;2023-02-12T18:01:18;2.97;93.95
77496;SHT31;66600;48.378;9.948;2023-02-12T18:03:44;3.05;93.71
77496;SHT31;66600;48.378;9.948;2023-02-12T18:06:10;3.05;93.53
77496;SHT31;66600;48.378;9.948;2023-02-12T18:08:39;3.11;93.34
77496;SHT31;66600;48.378;9.948;2023-02-12T18:11:11;3.03;93.18
77496;SHT31;66600;48.378;9.948;2023-02-12T18:13:36;3.14;92.81
77496;SHT31;66600;48.378;9.948;2023-02-12T18:16:09;3.11;92.65
77496;SHT31;66600;48.378;9.948;2023-02-12T18:18:35;3.13;92.51
77496;SHT31;66600;48.378;9.948;2023-02-12T18:21:05;3.18;92.45
77496;SHT31;66600;48.378;9.948;2023-02-12T18:23:31;3.14;92.33
77496;SHT31;66600;48.378;9.948;2023-02-12T18:25:56;3.15;92.17
77496;SHT31;66600;48.378;9.948;2023-02-12T18:28:21;3.18;91.88
77496;SHT31;66600;48.378;9.948;2023-02-12T18:30:54;3.15;91.88
77496;SHT31;66600;48.378;9.948;2023-02-12T18:33:20;3.15;91.82
77496;SHT31;66600;48.378;9.948;2023-02-12T18:36:03;3.22;91.61
77496;SHT31;66600;48.378;9.948;2023-02-12T18:38:30;3.18;91.69